Time;durP1;ratioP1;P1;durP2;ratioP2;P2;SDS_P1;SDS_P2;PMS_P1;PMS_P2;Temp;Humidity;BMP_temperature;BMP_pressure;BME280_temperature;BME280_humidity;BME280_pressure;Samples;Min_cycle;Max_cycle;Signal;HPM_P1;HPM_P2
2022/12/03 00:00:53;;;;;;;32.53;14.48;;;2.50;99.90;;;;;;5086919;28;20067;-77
2022/12/03 00:03:18;;;;;;;27.88;12.93;;;2.60;99.90;;;;;;5093107;28;20070;-77
2022/12/03 00:05:44;;;;;;;33.22;15.05;;;2.60;99.90;;;;;;5095528;28;20052;-77
2022/12/03 00:08:09;;;;;;;27.85;13.32;;;2.50;99.90;;;;;;5093826;28;20047;-77
2022/12/03 00:10:35;;;;;;;31.02;14.18;;;2.50;99.90;;;;;;5095586;28;20506;-77
2022/12/03 00:13:00;;;;;;;32.22;13.57;;;2.60;99.90;;;;;;5095629;28;20098;-76
2022/12/03 00:15:26;;;;;;;34.70;15.05;;;2.50;99.90;;;;;;5094938;28;20039;-77
2022/12/03 00:17:51;;;;;;;25.85;12.50;;;2.50;99.90;;;;;;5095938;28;20043;-77
2022/12/03 00:20:22;;;;;;;30.40;14.60;;;2.50;99.90;;;;;;5089402;28;20131;-76
2022/12/03 00:22:48;;;;;;;28.98;13.20;;;2.60;99.90;;;;;;5095140;28;20073;-77
2022/12/03 00:25:14;;;;;;;30.85;14.05;;;2.50;99.90;;;;;;5091111;28;20036;-77
2022/12/03 00:27:39;;;;;;;30.92;14.25;;;2.60;99.90;;;;;;5095060;28;20044;-77
2022/12/03 00:30:06;;;;;;;34.83;15.20;;;2.60;99.90;;;;;;5091123;28;20078;-77
2022/12/03 00:32:35;;;;;;;33.08;14.95;;;2.60;99.90;;;;;;5090019;28;20071;-75
2022/12/03 00:35:00;;;;;;;28.38;14.07;;;2.60;99.90;;;;;;5089807;28;20036;-77
2022/12/03 00:37:26;;;;;;;28.40;13.63;;;2.60;99.90;;;;;;5089050;28;20105;-77
2022/12/03 00:39:51;;;;;;;29.45;14.23;;;2.60;99.90;;;;;;5095096;28;20052;-77
2022/12/03 00:42:17;;;;;;;30.08;13.45;;;2.60;99.90;;;;;;5086695;28;20047;-77
2022/12/03 00:44:43;;;;;;;30.33;14.35;;;2.60;99.90;;;;;;5082953;28;20178;-77
2022/12/03 00:47:08;;;;;;;30.70;13.75;;;2.60;99.90;;;;;;5091424;28;20048;-77
2022/12/03 00:49:34;;;;;;;30.67;13.10;;;2.70;99.90;;;;;;5081018;28;20528;-76
2022/12/03 00:52:00;;;;;;;31.87;14.10;;;2.70;99.90;;;;;;5088129;28;20048;-77
2022/12/03 00:54:26;;;;;;;29.25;14.13;;;2.70;99.90;;;;;;5082477;28;20047;-77
2022/12/03 00:56:52;;;;;;;31.23;14.13;;;2.70;99.90;;;;;;5092909;28;20050;-77
2022/12/03 00:59:17;;;;;;;29.80;15.48;;;2.70;99.90;;;;;;5085789;28;20071;-77
2022/12/03 01:01:43;;;;;;;28.60;13.75;;;2.70;99.90;;;;;;5090127;28;20040;-77
2022/12/03 01:04:08;;;;;;;30.63;15.00;;;2.80;99.90;;;;;;5091681;28;20052;-76
2022/12/03 01:06:34;;;;;;;31.20;14.70;;;2.80;99.90;;;;;;5090185;28;20119;-77
2022/12/03 01:09:00;;;;;;;28.33;14.27;;;2.80;99.90;;;;;;5083556;28;20041;-77
2022/12/03 01:11:37;;;;;;;30.77;14.30;;;2.80;99.90;;;;;;5087049;28;20046;-77
2022/12/03 01:14:05;;;;;;;31.75;15.07;;;2.80;99.90;;;;;;5077938;28;20036;-78
2022/12/03 01:16:30;;;;;;;30.52;15.02;;;2.90;99.90;;;;;;5092129;28;20050;-77
2022/12/03 01:18:56;;;;;;;30.95;15.75;;;2.90;99.90;;;;;;5078772;28;20111;-77
2022/12/03 01:21:21;;;;;;;27.10;14.48;;;2.90;99.90;;;;;;5089890;28;20046;-76
2022/12/03 01:23:47;;;;;;;28.63;13.82;;;2.90;99.90;;;;;;5088801;28;20070;-78
2022/12/03 01:26:13;;;;;;;33.53;14.70;;;2.90;99.90;;;;;;5084682;28;20052;-77
2022/12/03 01:28:40;;;;;;;31.27;14.52;;;2.90;99.90;;;;;;5088704;28;20046;-76
2022/12/03 01:33:51;;;;;;;29.92;14.77;;;2.90;99.90;;;;;;5085690;28;20048;-77
2022/12/03 01:36:16;;;;;;;33.30;15.80;;;3.00;99.90;;;;;;5080651;28;20119;-77
2022/12/03 01:38:42;;;;;;;28.88;15.07;;;3.00;99.90;;;;;;5081671;28;20119;-77
2022/12/03 01:41:07;;;;;;;30.08;14.10;;;3.00;99.90;;;;;;5090315;28;20051;-77
2022/12/03 01:43:34;;;;;;;30.73;15.13;;;3.00;99.90;;;;;;5089968;28;20042;-77
2022/12/03 01:45:59;;;;;;;36.22;15.77;;;3.00;99.90;;;;;;5091654;28;20067;-76
2022/12/03 01:48:25;;;;;;;30.67;15.05;;;3.00;99.90;;;;;;5088676;28;20066;-77
2022/12/03 01:50:51;;;;;;;31.05;15.02;;;3.00;99.90;;;;;;5089344;28;20472;-78
2022/12/03 01:53:17;;;;;;;31.48;15.20;;;3.00;99.90;;;;;;5075923;28;20047;-77
2022/12/03 01:55:44;;;;;;;30.60;16.05;;;3.00;99.90;;;;;;5089181;28;20036;-77
2022/12/03 01:58:15;;;;;;;35.83;15.90;;;3.00;99.90;;;;;;5076436;28;20037;-77
2022/12/03 02:00:40;;;;;;;33.15;15.63;;;3.00;99.90;;;;;;5084806;28;20483;-77
2022/12/03 02:03:25;;;;;;;33.10;15.82;;;3.00;99.90;;;;;;5076773;28;20059;-77
2022/12/03 02:05:51;;;;;;;32.55;16.02;;;3.00;99.90;;;;;;5090617;28;20044;-77
2022/12/03 02:08:35;;;;;;;31.13;15.13;;;3.00;99.90;;;;;;5093439;28;20475;-77
2022/12/03 02:11:06;;;;;;;29.15;15.25;;;3.00;99.90;;;;;;5093683;28;20393;-77
2022/12/03 02:13:32;;;;;;;28.98;15.15;;;3.00;99.90;;;;;;5103880;28;20088;-77
2022/12/03 02:15:58;;;;;;;28.23;14.30;;;3.00;99.90;;;;;;5092918;28;20052;-77
2022/12/03 02:18:23;;;;;;;27.08;13.65;;;3.00;99.90;;;;;;5085635;28;20032;-77
2022/12/03 02:21:09;;;;;;;24.02;13.30;;;2.90;99.90;;;;;;5091331;28;20184;-78
2022/12/03 02:23:59;;;;;;;28.65;14.30;;;3.00;99.90;;;;;;5086584;28;20044;-77
2022/12/03 02:26:25;;;;;;;27.30;14.18;;;2.90;99.90;;;;;;5077788;28;20048;-77
2022/12/03 02:28:51;;;;;;;28.35;14.57;;;2.90;99.90;;;;;;5083345;28;20054;-78
2022/12/03 02:31:16;;;;;;;29.25;15.20;;;2.90;99.90;;;;;;5073842;28;20961;-77
2022/12/03 02:33:42;;;;;;;24.42;12.82;;;2.90;99.90;;;;;;5078009;28;20040;-78
2022/12/03 02:36:08;;;;;;;25.88;14.07;;;2.90;99.90;;;;;;5080184;28;20052;-78
2022/12/03 02:38:34;;;;;;;28.58;13.70;;;2.90;99.90;;;;;;5082272;28;20105;-78
2022/12/03 02:41:04;;;;;;;27.55;14.15;;;2.80;99.90;;;;;;5090382;28;20044;-77
2022/12/03 02:43:30;;;;;;;22.52;12.13;;;2.80;99.90;;;;;;5089735;28;20047;-77
2022/12/03 02:45:59;;;;;;;26.40;13.32;;;2.80;99.90;;;;;;5080432;28;20488;-77
2022/12/03 02:48:32;;;;;;;27.27;13.60;;;2.70;99.90;;;;;;5095063;28;20043;-78
2022/12/03 02:51:01;;;;;;;28.80;14.40;;;2.70;99.90;;;;;;5080544;28;20044;-77
2022/12/03 02:53:30;;;;;;;30.75;14.23;;;2.70;99.90;;;;;;5088593;28;20396;-78
2022/12/03 02:55:59;;;;;;;27.92;13.85;;;2.70;99.90;;;;;;5088668;28;20036;-77
2022/12/03 02:58:26;;;;;;;29.17;14.70;;;2.60;99.90;;;;;;5081876;28;20036;-77
2022/12/03 03:00:52;;;;;;;;;;;2.60;99.90;;;;;;5091210;28;20495;-77
2022/12/03 03:03:19;;;;;;;24.13;12.90;;;2.70;99.90;;;;;;5094595;28;19943;-77
2022/12/03 03:05:46;;;;;;;27.35;13.00;;;2.60;99.90;;;;;;5088515;28;20094;-78
2022/12/03 03:08:12;;;;;;;25.77;13.68;;;2.60;99.90;;;;;;5092246;28;20060;-78
2022/12/03 03:10:39;;;;;;;24.83;13.40;;;2.60;99.90;;;;;;5100730;28;20105;-78
2022/12/03 03:13:09;;;;;;;28.33;14.73;;;2.60;99.90;;;;;;5092812;28;20767;-77
2022/12/03 03:15:36;;;;;;;31.55;15.30;;;2.70;99.90;;;;;;5094945;28;20062;-78
2022/12/03 03:18:02;;;;;;;;;;;2.60;99.90;;;;;;5078060;28;20040;-77
2022/12/03 03:20:28;;;;;;;28.98;13.98;;;2.70;99.90;;;;;;5081859;28;19920;-77
2022/12/03 03:23:09;;;;;;;29.63;15.55;;;2.60;99.90;;;;;;5089498;28;20090;-77
2022/12/03 03:25:36;;;;;;;28.48;14.32;;;2.70;99.90;;;;;;5083893;28;20045;-77
2022/12/03 03:28:02;;;;;;;32.72;15.02;;;2.60;99.90;;;;;;5076555;28;20041;-78
2022/12/03 03:30:28;;;;;;;32.97;15.20;;;2.70;99.90;;;;;;5075575;28;20047;-78
2022/12/03 03:32:54;;;;;;;30.08;14.60;;;2.60;99.90;;;;;;5082609;28;20122;-77
2022/12/03 03:35:19;;;;;;;29.88;15.85;;;2.60;99.90;;;;;;5092794;28;20120;-78
2022/12/03 03:37:45;;;;;;;31.67;15.10;;;2.60;99.90;;;;;;5083117;28;20036;-77
2022/12/03 03:40:11;;;;;;;32.80;15.70;;;2.70;99.90;;;;;;5081263;28;20395;-78
2022/12/03 03:42:37;;;;;;;31.65;15.13;;;2.60;99.90;;;;;;5077722;28;20066;-78
2022/12/03 03:45:04;;;;;;;30.33;15.20;;;2.80;99.90;;;;;;5083506;28;20059;-78
2022/12/03 03:47:30;;;;;;;33.58;16.35;;;2.60;99.90;;;;;;5078616;28;20412;-78
2022/12/03 03:49:56;;;;;;;30.05;14.63;;;2.60;99.90;;;;;;5090289;28;20044;-78
2022/12/03 03:52:22;;;;;;;32.10;14.25;;;2.70;99.90;;;;;;5090210;28;20050;-78
2022/12/03 03:54:47;;;;;;;30.33;13.70;;;2.60;99.90;;;;;;5084350;28;20407;-78
2022/12/03 03:57:13;;;;;;;32.45;16.50;;;2.70;99.90;;;;;;5076306;28;20091;-78
2022/12/03 03:59:38;;;;;;;30.98;15.60;;;2.60;99.90;;;;;;5089811;28;20044;-77
2022/12/03 04:02:04;;;;;;;28.13;15.65;;;2.60;99.90;;;;;;5095880;28;20051;-78
2022/12/03 04:04:35;;;;;;;27.38;13.98;;;2.60;99.90;;;;;;5095918;28;20058;-78
2022/12/03 04:07:00;;;;;;;28.48;14.68;;;2.60;99.90;;;;;;5094747;28;20089;-78
2022/12/03 04:09:26;;;;;;;32.88;15.55;;;2.60;99.90;;;;;;5095956;28;20041;-78
2022/12/03 04:14:36;;;;;;;29.15;15.05;;;2.60;99.90;;;;;;5108074;28;20476;-77
2022/12/03 04:17:01;;;;;;;31.50;15.68;;;3.10;99.90;;;;;;5073990;28;20075;-78
2022/12/03 04:19:27;;;;;;;31.42;15.43;;;2.60;99.90;;;;;;5074988;28;20507;-78
2022/12/03 04:24:36;;;;;;;29.52;15.07;;;2.60;99.90;;;;;;5085881;28;20052;-78
2022/12/03 04:29:46;;;;;;;28.85;15.82;;;2.60;99.90;;;;;;5087092;28;20052;-77
2022/12/03 04:37:40;;;;;;;28.52;14.98;;;2.50;99.90;;;;;;5084822;28;20086;-77
2022/12/03 04:40:59;;;;;;;30.63;15.15;;;2.50;99.90;;;;;;5089503;28;20476;-78
2022/12/03 04:42:52;;;;;;;28.55;14.60;;;2.50;99.90;;;;;;5076415;28;20052;-78
2022/12/03 04:45:17;;;;;;;29.25;15.32;;;2.50;99.90;;;;;;5077159;28;20062;-78
2022/12/03 04:47:43;;;;;;;31.73;14.95;;;2.50;99.90;;;;;;5086727;28;20407;-78
2022/12/03 04:50:09;;;;;;;29.58;14.90;;;2.50;99.90;;;;;;5075531;28;20067;-78
2022/12/03 04:52:34;;;;;;;29.13;14.40;;;2.50;99.90;;;;;;5091037;28;20054;-78
2022/12/03 04:55:00;;;;;;;32.50;15.10;;;2.50;99.90;;;;;;5081477;28;20039;-78
2022/12/03 04:57:25;;;;;;;31.58;14.75;;;2.50;99.90;;;;;;5087242;28;20048;-77
2022/12/03 04:59:51;;;;;;;26.48;14.32;;;2.50;99.90;;;;;;5086603;28;20086;-77
2022/12/03 05:02:16;;;;;;;28.70;14.40;;;2.50;99.90;;;;;;5084901;28;20075;-77
2022/12/03 05:04:42;;;;;;;35.10;15.60;;;2.50;99.90;;;;;;5086285;28;20044;-77
2022/12/03 05:07:08;;;;;;;28.73;14.43;;;2.50;99.90;;;;;;5091610;28;20043;-76
2022/12/03 05:09:33;;;;;;;35.17;15.75;;;2.50;99.90;;;;;;5086264;28;20059;-78
2022/12/03 05:11:59;;;;;;;35.40;15.60;;;2.50;99.90;;;;;;5087757;28;20040;-77
2022/12/03 05:14:24;;;;;;;31.50;15.65;;;2.50;99.90;;;;;;5085691;28;20496;-76
2022/12/03 05:16:50;;;;;;;33.50;16.05;;;2.50;99.90;;;;;;5078445;28;20059;-77
2022/12/03 05:19:15;;;;;;;32.95;14.80;;;2.50;99.90;;;;;;5076988;28;20124;-76
2022/12/03 05:21:41;;;;;;;30.40;16.00;;;2.50;99.90;;;;;;5080844;28;20118;-77
2022/12/03 05:24:06;;;;;;;28.27;15.27;;;2.60;99.90;;;;;;5083548;28;20028;-77
2022/12/03 05:26:32;;;;;;;29.10;15.63;;;2.60;99.90;;;;;;5091594;28;20109;-77
2022/12/03 05:28:58;;;;;;;30.95;14.85;;;2.50;99.90;;;;;;5087166;28;20146;-77
2022/12/03 05:31:23;;;;;;;30.88;15.65;;;2.60;99.90;;;;;;5087997;28;20066;-77
2022/12/03 05:33:49;;;;;;;35.17;16.80;;;2.50;99.90;;;;;;5090922;28;20047;-77
2022/12/03 05:36:15;;;;;;;29.30;15.75;;;2.50;99.90;;;;;;5088543;28;20461;-77
2022/12/03 05:38:40;;;;;;;30.30;14.20;;;2.50;99.90;;;;;;5090070;28;20043;-77
2022/12/03 05:42:52;;;;;;;29.98;15.70;;;2.50;99.90;;;;;;5089448;28;20067;-77
2022/12/03 05:43:51;;;;;;;30.55;16.52;;;2.50;99.90;;;;;;5084256;28;20163;-76
2022/12/03 05:46:17;;;;;;;39.03;17.90;;;2.50;99.90;;;;;;5083977;28;20282;-77
2022/12/03 05:48:43;;;;;;;33.53;15.93;;;2.40;99.90;;;;;;5086505;28;20036;-77
2022/12/03 05:51:08;;;;;;;36.30;17.48;;;2.40;99.90;;;;;;5089223;28;20065;-77
2022/12/03 05:53:34;;;;;;;36.63;18.10;;;2.40;99.90;;;;;;5086260;28;20096;-77
2022/12/03 05:55:59;;;;;;;31.50;16.30;;;2.40;99.90;;;;;;5094087;28;20040;-77
2022/12/03 05:58:25;;;;;;;32.88;16.90;;;2.40;99.90;;;;;;5096878;28;20049;-77
2022/12/03 06:00:50;;;;;;;32.63;17.40;;;2.40;99.90;;;;;;5092903;28;20458;-77
2022/12/03 06:03:16;;;;;;;35.50;18.48;;;2.30;99.90;;;;;;5094307;28;20048;-77
2022/12/03 06:05:42;;;;;;;41.42;19.77;;;2.30;99.90;;;;;;5093737;28;20036;-77
2022/12/03 06:08:07;;;;;;;34.22;17.55;;;2.30;99.90;;;;;;5093922;28;20051;-78
2022/12/03 06:10:33;;;;;;;36.47;18.35;;;2.30;99.90;;;;;;5095358;28;20044;-77
2022/12/03 06:12:59;;;;;;;39.13;18.33;;;2.30;99.90;;;;;;5114560;28;20050;-77
2022/12/03 06:15:25;;;;;;;43.75;20.13;;;2.30;99.90;;;;;;5113209;28;20066;-77
2022/12/03 06:17:51;;;;;;;41.22;20.27;;;2.30;99.90;;;;;;5104165;28;20408;-78
2022/12/03 06:20:19;;;;;;;38.95;19.05;;;2.20;99.90;;;;;;5093695;28;20165;-79
2022/12/03 06:22:45;;;;;;;44.95;21.25;;;2.20;99.90;;;;;;5095145;28;20056;-78
2022/12/03 06:25:12;;;;;;;38.73;19.20;;;2.20;99.90;;;;;;5097678;28;20395;-78
2022/12/03 06:27:37;;;;;;;46.38;19.80;;;2.20;99.90;;;;;;5098981;28;20056;-78
2022/12/03 06:30:04;;;;;;;40.53;20.25;;;2.20;99.90;;;;;;5097841;28;20123;-82
2022/12/03 06:32:30;;;;;;;41.08;19.80;;;2.20;99.90;;;;;;5098667;28;20108;-78
2022/12/03 06:34:55;;;;;;;39.97;19.13;;;2.10;99.90;;;;;;5096041;28;20427;-79
2022/12/03 06:37:21;;;;;;;34.67;17.15;;;2.10;99.90;;;;;;5096529;28;20040;-83
2022/12/03 06:39:46;;;;;;;38.10;18.52;;;2.10;99.90;;;;;;5086759;28;20048;-77
2022/12/03 06:42:12;;;;;;;33.70;16.83;;;2.00;99.90;;;;;;5077678;28;20036;-79
2022/12/03 06:44:37;;;;;;;33.00;17.58;;;2.00;99.90;;;;;;5087487;28;20089;-78
2022/12/03 06:47:03;;;;;;;33.47;17.00;;;2.00;99.90;;;;;;5092793;28;20048;-80
2022/12/03 06:49:29;;;;;;;38.10;17.65;;;2.10;99.90;;;;;;5083942;28;20035;-76
2022/12/03 06:51:55;;;;;;;38.50;16.80;;;2.00;99.90;;;;;;5083332;28;20067;-82
2022/12/03 06:54:20;;;;;;;32.40;16.73;;;1.90;99.90;;;;;;5090820;28;20044;-77
2022/12/03 06:56:46;;;;;;;30.75;15.98;;;1.90;99.90;;;;;;5085431;28;20498;-75
2022/12/03 06:59:12;;;;;;;43.25;19.23;;;1.80;99.90;;;;;;5085070;28;20410;-81
2022/12/03 07:01:38;;;;;;;36.70;16.90;;;1.80;99.90;;;;;;5082567;28;20051;-75
2022/12/03 07:04:03;;;;;;;34.80;15.77;;;1.80;99.90;;;;;;5082700;28;20044;-76
2022/12/03 07:06:29;;;;;;;33.45;17.25;;;1.80;99.90;;;;;;5093239;28;20399;-77
2022/12/03 07:08:54;;;;;;;39.90;18.33;;;1.70;99.90;;;;;;5085505;28;20472;-78
2022/12/03 07:11:38;;;;;;;37.03;17.40;;;1.70;99.90;;;;;;5080007;28;20076;-74
2022/12/03 07:14:05;;;;;;;34.38;17.27;;;1.70;99.90;;;;;;5091825;28;20153;-76
2022/12/03 07:16:31;;;;;;;33.58;16.42;;;1.70;99.90;;;;;;5094505;28;20044;-75
2022/12/03 07:18:57;;;;;;;37.30;17.83;;;1.70;99.90;;;;;;5091402;28;20047;-77
2022/12/03 07:21:22;;;;;;;39.20;18.38;;;1.70;99.90;;;;;;5076805;28;20040;-74
2022/12/03 07:23:48;;;;;;;36.40;16.42;;;1.60;99.90;;;;;;5082269;28;20069;-74
2022/12/03 07:26:13;;;;;;;36.88;17.55;;;1.60;99.90;;;;;;5091624;28;20488;-75
2022/12/03 07:28:39;;;;;;;40.50;18.02;;;1.60;99.90;;;;;;5094806;28;20055;-74
2022/12/03 07:31:05;;;;;;;37.97;18.05;;;1.60;99.90;;;;;;5093628;28;20392;-78
2022/12/03 07:33:30;;;;;;;35.65;16.75;;;1.60;99.90;;;;;;5082497;28;20091;-76
2022/12/03 07:35:56;;;;;;;37.22;17.15;;;1.60;99.90;;;;;;5082515;28;20063;-75
2022/12/03 07:38:21;;;;;;;37.97;17.42;;;1.70;99.90;;;;;;5092801;28;20040;-77
2022/12/03 07:40:47;;;;;;;36.97;18.40;;;1.60;99.90;;;;;;5093580;28;20072;-76
2022/12/03 07:43:13;;;;;;;42.13;18.73;;;1.60;99.90;;;;;;5090856;28;20047;-76
2022/12/03 07:45:38;;;;;;;34.40;17.30;;;1.60;99.90;;;;;;5086536;28;20048;-76
2022/12/03 07:48:04;;;;;;;39.28;17.13;;;1.60;99.90;;;;;;5076909;28;20059;-77
2022/12/03 07:50:29;;;;;;;36.90;17.00;;;1.60;99.90;;;;;;5090512;28;20044;-76
2022/12/03 07:52:55;;;;;;;37.47;16.63;;;1.60;99.90;;;;;;5091523;28;20036;-77
2022/12/03 07:55:21;;;;;;;40.75;17.45;;;1.60;99.90;;;;;;5080615;28;20090;-74
2022/12/03 07:57:46;;;;;;;40.83;18.95;;;1.60;99.90;;;;;;5079028;28;20044;-81
2022/12/03 08:00:13;;;;;;;39.38;18.40;;;1.60;99.90;;;;;;5076162;28;20044;-75
2022/12/03 08:02:39;;;;;;;37.72;17.45;;;1.50;99.90;;;;;;5076075;28;20110;-76
2022/12/03 08:05:05;;;;;;;35.50;17.45;;;1.50;99.90;;;;;;5090371;28;20570;-76
2022/12/03 08:07:30;;;;;;;35.45;16.70;;;1.50;99.90;;;;;;5095674;28;20044;-79
2022/12/03 08:09:56;;;;;;;36.42;16.38;;;1.50;99.90;;;;;;5093724;28;20085;-80
2022/12/03 08:12:38;;;;;;;41.10;17.92;;;1.50;99.90;;;;;;5075829;28;20041;-78
2022/12/03 08:15:09;;;;;;;39.70;17.58;;;1.50;99.90;;;;;;5075533;28;20427;-79
2022/12/03 08:17:35;;;;;;;38.50;18.48;;;1.50;99.90;;;;;;5078183;28;20044;-82
2022/12/03 08:20:04;;;;;;;38.17;16.70;;;1.50;99.90;;;;;;5091985;28;20036;-77
2022/12/03 08:22:30;;;;;;;35.55;16.75;;;1.50;99.90;;;;;;5078959;28;20024;-78
2022/12/03 08:24:57;;;;;;;36.83;17.15;;;1.50;99.90;;;;;;5082073;28;20052;-81
2022/12/03 08:27:23;;;;;;;33.22;16.15;;;1.50;99.90;;;;;;5083436;28;20518;-76
2022/12/03 08:29:49;;;;;;;33.42;15.57;;;1.50;99.90;;;;;;5091510;28;20110;-84
2022/12/03 08:32:14;;;;;;;33.35;15.30;;;1.50;99.90;;;;;;5091801;28;20459;-76
2022/12/03 08:34:42;;;;;;;40.95;17.73;;;1.40;99.90;;;;;;5090866;28;20127;-76
2022/12/03 08:37:17;;;;;;;39.63;18.67;;;1.40;99.90;;;;;;5092970;28;20881;-77
2022/12/03 08:39:48;;;;;;;37.30;17.50;;;1.40;99.90;;;;;;5081667;28;20032;-77
2022/12/03 08:42:42;;;;;;;29.63;15.48;;;0.90;99.90;;;;;;5081565;28;20074;-80
2022/12/03 08:45:38;;;;;;;36.05;17.10;;;1.40;99.90;;;;;;5080914;28;20075;-77
2022/12/03 08:48:35;;;;;;;39.80;18.42;;;1.40;99.90;;;;;;5090322;28;20051;-77
2022/12/03 08:51:25;;;;;;;38.40;17.65;;;1.40;99.90;;;;;;5091951;28;20483;-75
2022/12/03 08:53:57;;;;;;;44.90;18.48;;;1.40;99.90;;;;;;5088373;28;20051;-74
2022/12/03 08:56:28;;;;;;;39.15;16.90;;;1.40;99.90;;;;;;5093101;28;20081;-75
2022/12/03 08:59:28;;;;;;;42.33;17.90;;;1.40;99.90;;;;;;5088602;28;20040;-78
2022/12/03 09:01:54;;;;;;;42.13;18.27;;;1.40;99.90;;;;;;5086645;28;20066;-79
2022/12/03 09:04:45;;;;;;;31.85;15.57;;;1.40;99.90;;;;;;5092351;28;20036;-78
2022/12/03 09:07:10;;;;;;;34.13;16.77;;;1.40;99.90;;;;;;5084089;28;20040;-80
2022/12/03 09:09:36;;;;;;;37.58;17.20;;;2.80;99.90;;;;;;5091196;28;20117;-80
2022/12/03 09:12:02;;;;;;;43.17;19.27;;;1.50;99.90;;;;;;5092041;28;20047;-75
2022/12/03 09:14:28;;;;;;;36.55;17.45;;;1.40;99.90;;;;;;5083799;28;20047;-75
2022/12/03 09:16:54;;;;;;;43.30;18.38;;;1.40;99.90;;;;;;5093353;28;20067;-76
2022/12/03 09:19:29;;;;;;;38.00;18.70;;;1.40;99.90;;;;;;5086498;28;20488;-77
2022/12/03 09:21:55;;;;;;;40.13;18.75;;;1.40;99.90;;;;;;5085337;28;20347;-77
2022/12/03 09:24:21;;;;;;;33.70;16.40;;;1.50;99.90;;;;;;5087422;28;20040;-73
2022/12/03 09:26:46;;;;;;;39.30;17.23;;;1.50;99.90;;;;;;5085848;28;20052;-74
2022/12/03 09:29:12;;;;;;;44.35;19.70;;;1.50;99.90;;;;;;5084999;28;20491;-82
2022/12/03 09:31:39;;;;;;;36.97;17.35;;;1.50;99.90;;;;;;5084145;28;20123;-79
2022/12/03 09:34:05;;;;;;;40.08;18.73;;;2.40;99.90;;;;;;5078222;28;20088;-77
2022/12/03 09:36:31;;;;;;;39.55;17.52;;;1.60;99.90;;;;;;5088938;28;20040;-77
2022/12/03 09:38:56;;;;;;;40.45;18.20;;;1.70;99.90;;;;;;5087966;28;20392;-77
2022/12/03 09:41:22;;;;;;;38.30;17.27;;;1.70;99.90;;;;;;5093495;28;20059;-78
2022/12/03 09:43:50;;;;;;;44.30;18.33;;;1.70;99.90;;;;;;5078987;28;20043;-76
2022/12/03 09:46:16;;;;;;;41.40;19.88;;;1.70;99.90;;;;;;5096084;28;20083;-79
2022/12/03 09:48:41;;;;;;;37.00;17.03;;;1.70;99.90;;;;;;5093920;28;20467;-77
2022/12/03 09:51:09;;;;;;;46.15;17.85;;;1.70;99.90;;;;;;5090902;28;20127;-79
2022/12/03 09:53:35;;;;;;;37.90;19.10;;;1.80;99.90;;;;;;5096618;28;20044;-79
2022/12/03 09:56:01;;;;;;;36.13;16.92;;;1.80;99.90;;;;;;5076823;28;20036;-79
2022/12/03 09:58:28;;;;;;;42.08;19.15;;;1.90;99.90;;;;;;5081858;28;20106;-75
2022/12/03 10:00:54;;;;;;;42.97;18.77;;;1.90;99.90;;;;;;5093703;28;20408;-79
2022/12/03 10:03:27;;;;;;;46.13;19.10;;;2.30;99.90;;;;;;5090536;28;20062;-83
2022/12/03 10:05:53;;;;;;;41.95;18.80;;;1.90;99.90;;;;;;5094649;28;20060;-77
2022/12/03 10:08:21;;;;;;;47.47;19.08;;;2.00;99.90;;;;;;5074958;28;20098;-76
2022/12/03 10:10:52;;;;;;;38.33;19.25;;;1.90;99.90;;;;;;5088644;28;20044;-80
2022/12/03 10:13:36;;;;;;;44.22;20.52;;;2.00;99.90;;;;;;5088473;28;20056;-80
2022/12/03 10:16:02;;;;;;;40.97;20.05;;;2.10;99.90;;;;;;5094379;28;20172;-80
2022/12/03 10:18:32;;;;;;;38.42;18.67;;;2.00;99.90;;;;;;5093933;28;20036;-80
2022/12/03 10:20:58;;;;;;;42.78;19.10;;;2.00;99.90;;;;;;5092133;28;20357;-76
2022/12/03 10:23:29;;;;;;;37.08;17.73;;;2.10;99.90;;;;;;5083115;28;20052;-75
2022/12/03 10:25:58;;;;;;;39.97;18.17;;;2.00;99.90;;;;;;5079805;28;20553;-80
2022/12/03 10:28:35;;;;;;;40.33;17.85;;;2.10;99.90;;;;;;5085050;28;20120;-78
2022/12/03 10:31:05;;;;;;;43.65;19.13;;;2.20;99.90;;;;;;5086738;28;20048;-80
2022/12/03 10:33:43;;;;;;;41.72;19.45;;;2.30;99.90;;;;;;5093530;28;20051;-79
2022/12/03 10:36:25;;;;;;;40.28;19.23;;;2.70;99.90;;;;;;5084089;28;20114;-82
2022/12/03 10:39:15;;;;;;;39.35;19.63;;;2.30;99.90;;;;;;5077331;28;20037;-83
2022/12/03 10:41:42;;;;;;;40.15;19.25;;;2.40;99.90;;;;;;5072178;28;20048;-83
2022/12/03 10:44:18;;;;;;;40.22;19.92;;;2.40;99.90;;;;;;5104806;28;20044;-81
2022/12/03 10:46:45;;;;;;;40.47;18.30;;;2.60;99.90;;;;;;5123506;28;20094;-75
2022/12/03 10:49:16;;;;;;;42.38;18.83;;;2.30;99.90;;;;;;5103759;28;20574;-79
2022/12/03 10:51:43;;;;;;;45.25;20.52;;;2.20;99.90;;;;;;5091657;28;20110;-76
2022/12/03 10:54:17;;;;;;;43.05;20.40;;;2.20;99.90;;;;;;5093112;28;20040;-79
2022/12/03 10:56:43;;;;;;;45.30;19.52;;;2.30;99.90;;;;;;5093020;28;20044;-82
2022/12/03 10:59:16;;;;;;;41.45;18.63;;;2.80;99.90;;;;;;5083345;28;20119;-74
2022/12/03 11:01:41;;;;;;;37.80;19.55;;;2.40;99.90;;;;;;5087322;28;20036;-73
2022/12/03 11:04:21;;;;;;;37.40;19.33;;;2.40;99.90;;;;;;5077001;28;20067;-73
2022/12/03 11:06:48;;;;;;;44.90;19.35;;;2.40;99.90;;;;;;5078515;28;20044;-73
2022/12/03 11:09:31;;;;;;;39.80;17.92;;;2.30;99.90;;;;;;5091823;28;20086;-75
2022/12/03 11:12:16;;;;;;;42.17;19.00;;;2.30;99.90;;;;;;5081511;28;20044;-73
2022/12/03 11:14:49;;;;;;;36.97;18.98;;;2.40;99.90;;;;;;5084730;28;20052;-76
2022/12/03 11:17:42;;;;;;;39.45;19.15;;;2.40;99.90;;;;;;5085676;28;20048;-77
2022/12/03 11:20:32;;;;;;;43.50;18.85;;;2.40;99.90;;;;;;5088067;28;20047;-77
2022/12/03 11:23:01;;;;;;;36.63;17.92;;;2.40;99.90;;;;;;5101978;28;20048;-74
2022/12/03 11:25:27;;;;;;;39.33;19.10;;;2.40;99.90;;;;;;5094060;28;20109;-77
2022/12/03 11:28:11;;;;;;;43.13;20.13;;;2.30;99.90;;;;;;5093618;28;20071;-76
2022/12/03 11:30:48;;;;;;;40.67;19.23;;;2.30;99.90;;;;;;5094644;28;20051;-79
2022/12/03 11:33:20;;;;;;;;;;;2.30;99.90;;;;;;5095303;28;20052;-80
2022/12/03 11:36:04;;;;;;;40.25;18.73;;;2.20;99.90;;;;;;5114664;28;19924;-81
2022/12/03 11:38:39;;;;;;;35.42;17.30;;;2.20;99.90;;;;;;5112462;28;20051;-79
2022/12/03 11:41:18;;;;;;;38.65;19.23;;;2.20;99.90;;;;;;5113753;28;20047;-75
2022/12/03 11:43:56;;;;;;;37.35;18.20;;;2.20;99.90;;;;;;5115164;28;20056;-75
2022/12/03 11:46:23;;;;;;;;;;;2.00;99.90;;;;;;5115203;28;20686;-79
2022/12/03 11:48:51;;;;;;;37.17;18.48;;;2.00;99.90;;;;;;5095317;28;19949;-85
2022/12/03 11:51:20;;;;;;;38.15;17.48;;;1.90;99.90;;;;;;5072875;28;20047;-77
2022/12/03 11:53:46;;;;;;;35.20;17.48;;;1.90;99.90;;;;;;5107096;28;20104;-77
2022/12/03 11:56:18;;;;;;;39.43;18.00;;;1.80;99.90;;;;;;5101527;28;20048;-77
2022/12/03 11:58:45;;;;;;;36.13;16.70;;;1.80;99.90;;;;;;5073915;28;20041;-79
2022/12/03 12:01:12;;;;;;;37.25;17.55;;;1.90;99.90;;;;;;5074152;28;20040;-82
2022/12/03 12:03:48;;;;;;;31.95;16.45;;;2.10;99.90;;;;;;5072857;28;20437;-77
2022/12/03 12:06:18;;;;;;;31.13;16.25;;;1.90;99.90;;;;;;5083841;28;20090;-78
2022/12/03 12:08:49;;;;;;;34.75;16.98;;;1.80;99.90;;;;;;5091085;28;20055;-81
2022/12/03 12:11:18;;;;;;;37.85;18.70;;;1.90;99.90;;;;;;5090823;28;20082;-77
2022/12/03 12:13:43;;;;;;;39.83;17.20;;;1.90;99.90;;;;;;5106605;28;20066;-76
2022/12/03 12:16:09;;;;;;;38.30;17.38;;;1.90;99.90;;;;;;5115961;28;20043;-76
2022/12/03 12:18:36;;;;;;;37.38;17.52;;;1.90;99.90;;;;;;5115458;28;20043;-77
2022/12/03 12:21:42;;;;;;;34.30;17.08;;;1.80;99.90;;;;;;5103931;28;20048;-76
2022/12/03 12:24:35;;;;;;;38.35;17.70;;;1.80;99.90;;;;;;5087705;28;20044;-77
2022/12/03 12:27:16;;;;;;;39.45;17.95;;;1.80;99.90;;;;;;5091280;28;20060;-78
2022/12/03 12:29:47;;;;;;;37.90;17.15;;;1.80;99.90;;;;;;5097897;28;20054;-76
2022/12/03 12:32:15;;;;;;;38.88;17.70;;;1.90;99.90;;;;;;5100323;28;20058;-76
2022/12/03 12:34:46;;;;;;;33.25;17.05;;;1.90;99.90;;;;;;5093564;28;20044;-77
2022/12/03 12:37:21;;;;;;;38.75;18.13;;;1.80;99.90;;;;;;5094480;28;20043;-75
2022/12/03 12:39:51;;;;;;;33.13;17.13;;;1.80;99.90;;;;;;5094960;28;20040;-75
2022/12/03 12:42:26;;;;;;;35.38;17.42;;;1.80;99.90;;;;;;5083912;28;20450;-76
2022/12/03 12:44:51;;;;;;;35.92;18.15;;;1.80;99.90;;;;;;5093773;28;20050;-78
2022/12/03 12:47:17;;;;;;;40.95;17.55;;;1.80;99.90;;;;;;5104513;28;20487;-76
2022/12/03 12:49:42;;;;;;;34.65;16.60;;;1.70;99.90;;;;;;5113633;28;20050;-77
2022/12/03 12:52:12;;;;;;;36.88;17.58;;;1.80;99.90;;;;;;5092172;28;20040;-76
2022/12/03 12:54:38;;;;;;;37.83;16.40;;;1.80;99.90;;;;;;5073636;28;20048;-70
2022/12/03 12:57:11;;;;;;;38.50;16.70;;;1.80;99.90;;;;;;5074531;28;20102;-76
2022/12/03 12:59:37;;;;;;;34.75;16.88;;;1.70;99.90;;;;;;5081744;28;20083;-77
2022/12/03 13:02:31;;;;;;;32.70;16.55;;;1.70;99.90;;;;;;5076840;28;20052;-77